Time;durP1;ratioP1;P1;durP2;ratioP2;P2;SDS_P1;SDS_P2;PMS_P1;PMS_P2;Temp;Humidity;BMP_temperature;BMP_pressure;BME280_temperature;BME280_humidity;BME280_pressure;Samples;Min_cycle;Max_cycle;Signal;HPM_P1;HPM_P2
2023/09/21 06:02:13;;;;;;;12.07;6.60;;;;;;;;;;5579702;23;21006;-72
2023/09/21 06:04:43;;;;;;;11.70;5.70;;;;;;;;;;4974634;28;20459;-72
2023/09/21 06:07:09;;;;;;;10.47;5.00;;;;;;;;;;4962142;28;20924;-72
2023/09/21 06:09:35;;;;;;;11.50;5.30;;;;;;;;;;4974851;28;20424;-72
2023/09/21 06:12:01;;;;;;;11.67;5.40;;;;;;;;;;4974097;28;20474;-72
2023/09/21 06:14:27;;;;;;;11.57;5.60;;;;;;;;;;4976297;23;20596;-71
2023/09/21 06:16:53;;;;;;;12.83;6.20;;;;;;;;;;4946078;29;20915;-71
2023/09/21 06:19:19;;;;;;;13.73;6.73;;;;;;;;;;4955135;28;20839;-70
2023/09/21 06:21:51;;;;;;;23.83;6.80;;;;;;;;;;4955980;28;20438;-71
2023/09/21 06:24:17;;;;;;;14.30;6.90;;;;;;;;;;4955828;28;20473;-71
2023/09/21 06:26:44;;;;;;;12.10;6.27;;;;;;;;;;4956035;28;20512;-70
2023/09/21 06:29:10;;;;;;;10.83;6.50;;;;;;;;;;4956202;28;20408;-69
2023/09/21 06:31:36;;;;;;;14.63;6.60;;;;;;;;;;4956275;28;20984;-72
2023/09/21 06:34:07;;;;;;;13.43;6.40;;;;;;;;;;4949966;28;20588;-71
2023/09/21 06:36:34;;;;;;;14.23;6.27;;;;;;;;;;4955611;28;20421;-70
2023/09/21 06:39:00;;;;;;;15.10;5.40;;;;;;;;;;4955895;28;20420;-71
2023/09/21 06:41:26;;;;;;;9.47;5.00;;;;;;;;;;4954878;28;20457;-77
2023/09/21 06:43:53;;;;;;;16.83;5.60;;;;;;;;;;4938559;29;20505;-76
2023/09/21 06:46:19;;;;;;;14.40;5.30;;;;;;;;;;4937712;29;20437;-73
2023/09/21 06:48:46;;;;;;;15.67;5.87;;;;;;;;;;4936600;29;20774;-72
2023/09/21 06:51:12;;;;;;;12.50;5.57;;;;;;;;;;4936369;29;20936;-73
2023/09/21 06:53:38;;;;;;;14.50;5.83;;;;;;;;;;4934900;29;20445;-73
2023/09/21 06:56:05;;;;;;;18.50;4.50;;;;;;;;;;4936961;29;20489;-73
2023/09/21 06:58:31;;;;;;;12.80;5.60;;;;;;;;;;4938822;29;20516;-76
2023/09/21 07:01:02;;;;;;;19.93;6.30;;;;;;;;;;4955936;28;20967;-74
2023/09/21 07:03:28;;;;;;;14.03;6.03;;;;;;;;;;4955498;28;20522;-75
2023/09/21 07:05:54;;;;;;;10.20;5.90;;;;;;;;;;4955456;28;20409;-74
2023/09/21 07:08:20;;;;;;;14.07;5.10;;;;;;;;;;4955636;28;20877;-75
2023/09/21 07:10:48;;;;;;;8.07;5.10;;;;;;;;;;4953671;28;20428;-76
2023/09/21 07:13:14;;;;;;;18.03;5.87;;;;;;;;;;4943731;28;20910;-77
2023/09/21 07:15:41;;;;;;;14.30;6.20;;;;;;;;;;4955889;29;20427;-77
2023/09/21 07:18:07;;;;;;;20.43;6.50;;;;;;;;;;4956009;28;20808;-77
2023/09/21 07:20:36;;;;;;;11.53;5.33;;;;;;;;;;4956657;28;20415;-75
2023/09/21 07:23:03;;;;;;;13.03;6.23;;;;;;;;;;4949638;28;20421;-76
2023/09/21 07:25:29;;;;;;;14.10;5.63;;;;;;;;;;4943121;28;20805;-77
2023/09/21 07:27:58;;;;;;;18.13;5.20;;;;;;;;;;4936649;29;20446;-77
2023/09/21 07:30:32;;;;;;;10.60;5.07;;;;;;;;;;4936093;29;20410;-77
2023/09/21 07:32:59;;;;;;;8.90;5.00;;;;;;;;;;4935959;29;20798;-75
2023/09/21 07:35:26;;;;;;;15.23;4.87;;;;;;;;;;4935884;29;20473;-76
2023/09/21 07:37:52;;;;;;;18.63;6.30;;;;;;;;;;4936249;29;20421;-76
2023/09/21 07:40:18;;;;;;;17.07;5.40;;;;;;;;;;4936505;29;20457;-76
2023/09/21 07:42:45;;;;;;;15.17;4.87;;;;;;;;;;4955179;28;20413;-76
2023/09/21 07:45:11;;;;;;;10.43;4.77;;;;;;;;;;4935644;29;20508;-77
2023/09/21 07:47:38;;;;;;;8.07;4.77;;;;;;;;;;4937125;29;20421;-76
2023/09/21 07:50:04;;;;;;;13.90;5.03;;;;;;;;;;4940224;29;20915;-76
2023/09/21 07:52:30;;;;;;;10.97;4.77;;;;;;;;;;4915612;29;20860;-77
2023/09/21 07:54:59;;;;;;;8.47;4.33;;;;;;;;;;4916804;29;20466;-77
2023/09/21 07:57:25;;;;;;;14.80;5.47;;;;;;;;;;4927651;29;20516;-77
2023/09/21 07:59:51;;;;;;;12.63;4.40;;;;;;;;;;4936147;29;20489;-77
2023/09/21 08:02:19;;;;;;;8.50;4.30;;;;;;;;;;4935378;29;20422;-76
2023/09/21 08:04:46;;;;;;;6.80;3.97;;;;;;;;;;4934980;29;20484;-76
2023/09/21 08:07:12;;;;;;;9.20;3.73;;;;;;;;;;4935343;29;20418;-76
2023/09/21 08:09:39;;;;;;;9.60;3.97;;;;;;;;;;4936449;29;20417;-76
2023/09/21 08:12:05;;;;;;;13.47;4.67;;;;;;;;;;4942452;29;20428;-76
2023/09/21 08:14:34;;;;;;;14.23;4.37;;;;;;;;;;4945816;28;20465;-71
2023/09/21 08:17:01;;;;;;;12.43;3.90;;;;;;;;;;4934689;29;20421;-71
2023/09/21 08:19:27;;;;;;;12.27;4.47;;;;;;;;;;4934823;29;20879;-72
2023/09/21 08:21:53;;;;;;;8.60;3.40;;;;;;;;;;4935288;29;20436;-71
2023/09/21 08:24:19;;;;;;;7.77;3.50;;;;;;;;;;4934414;29;20950;-71
2023/09/21 08:26:45;;;;;;;9.77;3.63;;;;;;;;;;4935168;29;20784;-71
2023/09/21 08:29:12;;;;;;;5.87;3.40;;;;;;;;;;4935813;29;20464;-73
2023/09/21 08:31:40;;;;;;;6.80;3.73;;;;;;;;;;4915408;29;20422;-72
2023/09/21 08:34:06;;;;;;;9.03;3.23;;;;;;;;;;4934363;29;20445;-72
2023/09/21 08:36:32;;;;;;;8.57;4.03;;;;;;;;;;4934900;28;20437;-72
2023/09/21 08:39:01;;;;;;;11.93;4.30;;;;;;;;;;4939347;29;20488;-72
2023/09/21 08:41:28;;;;;;;9.53;4.30;;;;;;;;;;4953699;29;20412;-72
2023/09/21 08:43:54;;;;;;;5.57;3.23;;;;;;;;;;4935967;28;20485;-72
2023/09/21 08:46:20;;;;;;;4.70;3.33;;;;;;;;;;4934976;29;20436;-72
2023/09/21 08:48:48;;;;;;;9.70;4.40;;;;;;;;;;4949468;29;20433;-71
2023/09/21 08:51:18;;;;;;;5.70;3.70;;;;;;;;;;4951512;28;20487;-72
2023/09/21 08:53:48;;;;;;;17.30;3.60;;;;;;;;;;4935527;28;20762;-72
2023/09/21 08:56:14;;;;;;;7.47;4.13;;;;;;;;;;4935080;29;20442;-71
2023/09/21 08:58:41;;;;;;;7.57;3.53;;;;;;;;;;4933662;29;20824;-72
2023/09/21 09:01:08;;;;;;;6.87;4.07;;;;;;;;;;4934466;29;20421;-72
2023/09/21 09:03:34;;;;;;;8.07;3.80;;;;;;;;;;4934274;29;20465;-72
2023/09/21 09:06:00;;;;;;;12.10;5.67;;;;;;;;;;4939003;29;20429;-72
2023/09/21 09:08:29;;;;;;;8.63;4.47;;;;;;;;;;4936950;29;20421;-72
2023/09/21 09:10:56;;;;;;;10.23;4.97;;;;;;;;;;4940971;29;20501;-71
2023/09/21 09:13:30;;;;;;;8.90;4.00;;;;;;;;;;4944466;29;20414;-72
2023/09/21 09:15:58;;;;;;;17.80;4.90;;;;;;;;;;4946230;29;20859;-72
2023/09/21 09:18:24;;;;;;;11.37;5.10;;;;;;;;;;4951762;29;20406;-73
2023/09/21 09:20:50;;;;;;;16.00;5.13;;;;;;;;;;4946731;29;20473;-72
2023/09/21 09:23:18;;;;;;;9.23;4.23;;;;;;;;;;4942734;29;20414;-72
2023/09/21 09:25:44;;;;;;;9.00;4.53;;;;;;;;;;4948262;29;20469;-73
2023/09/21 09:28:10;;;;;;;12.53;5.10;;;;;;;;;;4950562;29;20420;-73
2023/09/21 09:30:39;;;;;;;10.40;4.17;;;;;;;;;;4955554;29;20429;-73
2023/09/21 09:33:09;;;;;;;12.20;3.73;;;;;;;;;;4952134;29;20945;-72
2023/09/21 09:35:37;;;;;;;13.03;4.47;;;;;;;;;;4941872;29;20448;-72
2023/09/21 09:38:03;;;;;;;6.30;3.70;;;;;;;;;;4956152;28;20440;-72
2023/09/21 09:40:30;;;;;;;9.13;3.70;;;;;;;;;;4937811;29;20464;-73
2023/09/21 09:42:57;;;;;;;6.90;3.73;;;;;;;;;;4937690;29;20445;-73
2023/09/21 09:45:26;;;;;;;6.67;3.53;;;;;;;;;;4940161;29;20473;-73
2023/09/21 09:47:55;;;;;;;7.87;4.03;;;;;;;;;;4955644;28;20920;-72
2023/09/21 09:50:24;;;;;;;10.57;4.13;;;;;;;;;;4953932;28;20417;-71
2023/09/21 09:53:11;;;;;;;11.23;3.60;;;;;;;;;;4937612;29;20406;-71
2023/09/21 09:55:42;;;;;;;6.10;3.30;;;;;;;;;;4952842;29;20789;-70
2023/09/21 09:58:08;;;;;;;5.37;3.60;;;;;;;;;;4949269;28;20908;-70
2023/09/21 10:00:35;;;;;;;8.63;3.30;;;;;;;;;;4950264;29;20429;-70
2023/09/21 10:03:03;;;;;;;6.23;3.13;;;;;;;;;;4956424;28;20423;-74
2023/09/21 10:05:29;;;;;;;8.50;3.50;;;;;;;;;;4944774;28;21075;-73
2023/09/21 10:07:59;;;;;;;10.20;4.00;;;;;;;;;;4937765;28;20421;-73
2023/09/21 10:10:27;;;;;;;15.13;3.47;;;;;;;;;;4937474;29;20414;-73
2023/09/21 10:12:55;;;;;;;4.70;3.20;;;;;;;;;;4936712;29;20513;-79
2023/09/21 10:15:22;;;;;;;6.13;3.43;;;;;;;;;;4936807;29;20465;-73
2023/09/21 10:17:50;;;;;;;12.93;3.70;;;;;;;;;;4937198;29;20461;-73
2023/09/21 10:20:24;;;;;;;7.20;3.17;;;;;;;;;;4937184;29;20433;-73
2023/09/21 10:22:51;;;;;;;7.27;3.07;;;;;;;;;;4937126;29;20425;-73
2023/09/21 10:25:20;;;;;;;4.60;3.40;;;;;;;;;;4936783;29;20523;-73
2023/09/21 10:27:49;;;;;;;6.63;3.43;;;;;;;;;;4936834;29;20835;-73
2023/09/21 10:30:18;;;;;;;7.37;3.37;;;;;;;;;;4937151;29;20402;-73
2023/09/21 10:32:48;;;;;;;5.43;2.77;;;;;;;;;;4936741;29;20418;-72
2023/09/21 10:35:49;;;;;;;4.70;2.97;;;;;;;;;;4936542;29;20440;-73
2023/09/21 10:38:16;;;;;;;10.27;3.07;;;;;;;;;;4936906;29;20393;-72
2023/09/21 10:40:42;;;;;;;5.20;2.80;;;;;;;;;;4936181;29;20417;-72
2023/09/21 10:43:27;;;;;;;3.20;2.53;;;;;;;;;;4936079;29;20414;-72
2023/09/21 10:45:56;;;;;;;6.67;3.10;;;;;;;;;;4936679;29;20870;-72
2023/09/21 10:48:24;;;;;;;7.87;3.17;;;;;;;;;;4936611;29;20414;-72
2023/09/21 10:50:50;;;;;;;4.33;2.60;;;;;;;;;;4936635;29;20410;-72
2023/09/21 10:53:19;;;;;;;3.60;2.20;;;;;;;;;;4936330;29;20429;-72
2023/09/21 10:55:46;;;;;;;5.73;2.73;;;;;;;;;;4936629;29;20892;-74
2023/09/21 10:58:12;;;;;;;6.93;3.10;;;;;;;;;;4935220;29;20472;-73
2023/09/21 11:00:39;;;;;;;6.10;3.30;;;;;;;;;;4936619;29;20500;-73
2023/09/21 11:03:05;;;;;;;8.50;3.03;;;;;;;;;;4936126;29;20445;-73
2023/09/21 11:05:31;;;;;;;6.40;2.90;;;;;;;;;;4936047;29;20477;-73
2023/09/21 11:07:58;;;;;;;4.20;2.50;;;;;;;;;;4936232;29;20436;-73
2023/09/21 11:10:25;;;;;;;7.90;2.43;;;;;;;;;;4936188;29;20406;-73
2023/09/21 11:12:51;;;;;;;6.57;2.63;;;;;;;;;;4935980;29;20489;-74
2023/09/21 11:15:17;;;;;;;5.73;2.70;;;;;;;;;;4934479;29;20453;-74
2023/09/21 11:17:44;;;;;;;6.30;2.90;;;;;;;;;;4935826;29;20409;-73
2023/09/21 11:20:14;;;;;;;4.30;2.90;;;;;;;;;;4936097;29;20445;-73
2023/09/21 11:22:44;;;;;;;4.40;3.07;;;;;;;;;;4936066;29;20414;-74
2023/09/21 11:25:18;;;;;;;6.53;2.93;;;;;;;;;;4934358;29;20476;-73
2023/09/21 11:27:45;;;;;;;5.57;2.63;;;;;;;;;;4935633;29;20437;-72
2023/09/21 11:30:13;;;;;;;5.60;3.00;;;;;;;;;;4935770;29;20824;-71
2023/09/21 11:32:46;;;;;;;5.17;2.93;;;;;;;;;;4935569;29;20405;-72
2023/09/21 11:35:12;;;;;;;5.37;3.60;;;;;;;;;;4935389;29;20430;-72
2023/09/21 11:37:38;;;;;;;5.00;2.87;;;;;;;;;;4935524;29;20912;-72
2023/09/21 11:40:11;;;;;;;6.63;2.70;;;;;;;;;;4935433;29;20413;-71
2023/09/21 11:42:41;;;;;;;6.10;2.53;;;;;;;;;;4950160;29;20428;-70
2023/09/21 11:45:07;;;;;;;6.10;2.90;;;;;;;;;;4954304;28;20785;-73
2023/09/21 11:47:34;;;;;;;6.97;2.67;;;;;;;;;;4947211;28;20540;-74
2023/09/21 11:50:04;;;;;;;3.73;2.67;;;;;;;;;;4935542;29;20928;-72
2023/09/21 11:52:31;;;;;;;5.10;2.77;;;;;;;;;;4934686;29;20492;-73
2023/09/21 11:54:57;;;;;;;6.60;3.03;;;;;;;;;;4935736;29;20525;-73
2023/09/21 11:57:23;;;;;;;10.10;3.87;;;;;;;;;;4945925;29;20417;-74
2023/09/21 11:59:49;;;;;;;4.17;2.30;;;;;;;;;;4934086;29;20937;-74
2023/09/21 12:02:17;;;;;;;9.27;3.10;;;;;;;;;;4933653;29;20426;-73
2023/09/21 12:04:44;;;;;;;5.40;2.47;;;;;;;;;;4935000;29;20469;-73
2023/09/21 12:07:11;;;;;;;5.00;3.13;;;;;;;;;;4935014;29;20479;-73
2023/09/21 12:09:40;;;;;;;13.80;3.80;;;;;;;;;;4938747;29;20429;-73
2023/09/21 12:12:07;;;;;;;4.63;2.27;;;;;;;;;;4953224;28;20444;-74
2023/09/21 12:14:33;;;;;;;8.83;2.80;;;;;;;;;;4954485;28;20455;-75
2023/09/21 12:17:04;;;;;;;3.43;2.50;;;;;;;;;;4953286;28;20436;-74
2023/09/21 12:19:31;;;;;;;5.80;3.23;;;;;;;;;;4954875;28;20420;-75
2023/09/21 12:21:57;;;;;;;6.90;2.60;;;;;;;;;;4954623;28;20896;-75
2023/09/21 12:24:23;;;;;;;5.57;2.70;;;;;;;;;;4952399;28;20859;-74
2023/09/21 12:26:49;;;;;;;4.80;2.50;;;;;;;;;;4953024;28;20429;-74
2023/09/21 12:29:17;;;;;;;5.10;2.83;;;;;;;;;;4954324;28;20523;-75
2023/09/21 12:31:44;;;;;;;4.33;2.70;;;;;;;;;;4954248;28;20477;-74
2023/09/21 12:34:12;;;;;;;7.47;2.50;;;;;;;;;;4954054;28;20479;-74
2023/09/21 12:36:38;;;;;;;6.03;3.07;;;;;;;;;;4954560;29;20418;-75
2023/09/21 12:39:09;;;;;;;5.40;2.40;;;;;;;;;;4954198;28;20408;-75
2023/09/21 12:41:37;;;;;;;5.70;3.10;;;;;;;;;;4953115;28;21012;-75
2023/09/21 12:44:03;;;;;;;10.83;2.70;;;;;;;;;;4953840;28;20469;-74
2023/09/21 12:46:29;;;;;;;7.57;2.90;;;;;;;;;;4954487;28;20783;-74
2023/09/21 12:48:55;;;;;;;4.80;2.40;;;;;;;;;;4954357;28;20873;-75
2023/09/21 12:51:21;;;;;;;11.20;2.77;;;;;;;;;;4955002;28;20415;-75
2023/09/21 12:53:47;;;;;;;6.23;3.03;;;;;;;;;;4954751;28;20436;-75
2023/09/21 12:56:14;;;;;;;4.73;2.50;;;;;;;;;;4954978;28;20412;-75
2023/09/21 12:58:40;;;;;;;4.30;2.30;;;;;;;;;;4955526;28;20415;-75
2023/09/21 13:01:06;;;;;;;5.10;2.70;;;;;;;;;;4954958;28;20412;-75
2023/09/21 13:03:34;;;;;;;5.33;2.90;;;;;;;;;;4956306;28;20511;-75
2023/09/21 13:06:01;;;;;;;10.17;3.07;;;;;;;;;;4956353;28;20423;-75
2023/09/21 13:08:27;;;;;;;10.83;3.10;;;;;;;;;;4953271;28;20424;-74
2023/09/21 13:10:53;;;;;;;4.10;2.40;;;;;;;;;;4940943;29;20802;-75
2023/09/21 13:13:19;;;;;;;14.20;3.20;;;;;;;;;;4939377;28;20437;-75
2023/09/21 13:15:45;;;;;;;4.90;2.97;;;;;;;;;;4937348;29;20425;-75
2023/09/21 13:18:13;;;;;;;5.53;3.10;;;;;;;;;;4938780;29;20754;-75
2023/09/21 13:20:42;;;;;;;5.40;3.00;;;;;;;;;;4938224;29;20421;-75
2023/09/21 13:23:08;;;;;;;4.20;3.07;;;;;;;;;;4938196;29;20426;-72
2023/09/21 13:25:34;;;;;;;4.33;2.47;;;;;;;;;;4938442;29;20472;-74
2023/09/21 13:28:00;;;;;;;6.50;2.83;;;;;;;;;;4938361;29;20460;-74
2023/09/21 13:30:26;;;;;;;5.23;3.00;;;;;;;;;;4938720;29;20425;-74
2023/09/21 13:32:53;;;;;;;5.43;3.10;;;;;;;;;;4941020;29;20454;-73
2023/09/21 13:35:19;;;;;;;5.07;3.00;;;;;;;;;;4957061;28;20515;-74
2023/09/21 13:37:45;;;;;;;4.93;2.80;;;;;;;;;;4957290;28;20459;-73
2023/09/21 13:40:11;;;;;;;5.23;2.63;;;;;;;;;;4957484;28;20412;-74
2023/09/21 13:42:39;;;;;;;4.43;2.57;;;;;;;;;;4957158;28;20421;-74
2023/09/21 13:45:07;;;;;;;3.13;2.30;;;;;;;;;;4957534;28;20530;-74
2023/09/21 13:47:33;;;;;;;5.30;2.50;;;;;;;;;;4958080;28;20444;-74
2023/09/21 13:49:59;;;;;;;9.03;3.20;;;;;;;;;;4958663;28;20468;-75
2023/09/21 13:52:25;;;;;;;6.10;2.83;;;;;;;;;;4956223;28;20495;-74
2023/09/21 13:54:53;;;;;;;8.10;3.00;;;;;;;;;;4945700;28;20449;-73
2023/09/21 13:57:19;;;;;;;8.97;2.47;;;;;;;;;;4938062;29;20522;-74
2023/09/21 13:59:45;;;;;;;4.90;2.90;;;;;;;;;;4938304;29;20413;-75
2023/09/21 14:02:13;;;;;;;8.00;3.83;;;;;;;;;;4937681;29;20794;-75
2023/09/21 14:04:39;;;;;;;5.13;3.10;;;;;;;;;;4937503;29;21040;-77
2023/09/21 14:07:06;;;;;;;6.93;2.53;;;;;;;;;;4937657;29;20488;-72
2023/09/21 14:09:33;;;;;;;5.23;2.73;;;;;;;;;;4937610;29;20416;-71
2023/09/21 14:11:59;;;;;;;4.50;2.40;;;;;;;;;;4937206;29;20453;-69
2023/09/21 14:14:25;;;;;;;9.73;3.43;;;;;;;;;;4937308;29;20552;-69
2023/09/21 14:16:51;;;;;;;7.50;3.00;;;;;;;;;;4956211;28;20480;-68
2023/09/21 14:19:17;;;;;;;8.20;3.00;;;;;;;;;;4951981;28;20504;-69
2023/09/21 14:21:43;;;;;;;18.97;3.00;;;;;;;;;;4936928;29;20464;-69
2023/09/21 14:24:09;;;;;;;2.40;2.10;;;;;;;;;;4936754;29;20467;-69
2023/09/21 14:26:37;;;;;;;4.97;2.77;;;;;;;;;;4937633;29;20409;-75
2023/09/21 14:29:03;;;;;;;5.10;3.17;;;;;;;;;;4936861;29;20469;-72
2023/09/21 14:31:29;;;;;;;11.33;4.40;;;;;;;;;;4936800;29;20410;-75
2023/09/21 14:33:54;;;;;;;7.13;3.50;;;;;;;;;;4936624;29;20437;-73
2023/09/21 14:36:20;;;;;;;7.33;4.20;;;;;;;;;;4937313;29;20457;-73
2023/09/21 14:38:46;;;;;;;5.67;2.70;;;;;;;;;;4938538;29;20425;-73
2023/09/21 14:41:12;;;;;;;5.30;3.27;;;;;;;;;;4942988;29;20473;-74
2023/09/21 14:43:38;;;;;;;4.67;2.77;;;;;;;;;;4941331;29;20433;-73
2023/09/21 14:46:04;;;;;;;5.33;2.77;;;;;;;;;;4941089;29;20924;-72
2023/09/21 14:48:30;;;;;;;6.70;3.30;;;;;;;;;;4941083;29;20964;-73
2023/09/21 14:50:56;;;;;;;4.40;2.50;;;;;;;;;;4940494;29;20897;-73
2023/09/21 14:53:25;;;;;;;7.17;2.73;;;;;;;;;;4938324;29;20864;-72
2023/09/21 14:55:52;;;;;;;3.20;2.63;;;;;;;;;;4936821;29;20422;-73
2023/09/21 14:58:18;;;;;;;4.33;2.67;;;;;;;;;;4936671;29;20414;-73
2023/09/21 15:00:44;;;;;;;4.97;2.93;;;;;;;;;;4936835;29;20417;-74
2023/09/21 15:03:10;;;;;;;5.40;2.93;;;;;;;;;;4936274;29;20476;-74
2023/09/21 15:05:38;;;;;;;4.40;2.80;;;;;;;;;;4936675;29;20559;-73
2023/09/21 15:08:04;;;;;;;4.37;2.50;;;;;;;;;;4936424;29;20416;-73
2023/09/21 15:10:30;;;;;;;5.63;2.67;;;;;;;;;;4936622;29;20462;-73
2023/09/21 15:12:57;;;;;;;6.20;2.60;;;;;;;;;;4936487;29;20500;-73
2023/09/21 15:15:22;;;;;;;5.07;2.40;;;;;;;;;;4936047;29;20453;-73
2023/09/21 15:17:48;;;;;;;6.63;3.43;;;;;;;;;;4936586;29;20773;-73
2023/09/21 15:20:14;;;;;;;4.53;3.23;;;;;;;;;;4936578;29;20410;-73
2023/09/21 15:22:41;;;;;;;5.20;2.73;;;;;;;;;;4936118;29;20422;-73
2023/09/21 15:25:07;;;;;;;6.40;2.70;;;;;;;;;;4935698;29;20560;-73
2023/09/21 15:27:33;;;;;;;6.60;2.87;;;;;;;;;;4936073;29;20757;-73
2023/09/21 15:29:59;;;;;;;7.13;3.17;;;;;;;;;;4936139;29;20420;-73
2023/09/21 15:32:25;;;;;;;6.73;3.20;;;;;;;;;;4935900;29;20775;-73
2023/09/21 15:34:51;;;;;;;4.90;3.20;;;;;;;;;;4935646;29;20461;-73
2023/09/21 15:37:17;;;;;;;7.30;3.17;;;;;;;;;;4935970;29;20417;-73
2023/09/21 15:39:44;;;;;;;6.70;3.30;;;;;;;;;;4935838;29;20783;-73
2023/09/21 15:42:10;;;;;;;4.53;2.70;;;;;;;;;;4935737;29;20441;-73
2023/09/21 15:44:36;;;;;;;5.93;3.10;;;;;;;;;;4935419;29;20771;-73
2023/09/21 15:47:03;;;;;;;6.37;2.93;;;;;;;;;;4935512;29;20440;-74
2023/09/21 15:49:29;;;;;;;7.13;3.77;;;;;;;;;;4935720;29;20937;-73
2023/09/21 15:51:55;;;;;;;14.97;6.57;;;;;;;;;;4935713;29;20413;-72
2023/09/21 15:54:21;;;;;;;10.37;4.63;;;;;;;;;;4935234;29;20600;-73
2023/09/21 15:56:47;;;;;;;15.17;7.27;;;;;;;;;;4935924;29;20777;-72
2023/09/21 15:59:13;;;;;;;14.63;6.20;;;;;;;;;;4935917;29;20410;-72
2023/09/21 16:01:39;;;;;;;7.50;4.90;;;;;;;;;;4935441;29;20425;-72
2023/09/21 16:04:07;;;;;;;12.13;3.40;;;;;;;;;;4934923;29;20465;-72
2023/09/21 16:06:33;;;;;;;6.83;3.30;;;;;;;;;;4929720;29;20862;-73
2023/09/21 16:08:59;;;;;;;7.37;3.20;;;;;;;;;;4935447;29;20896;-73
2023/09/21 16:11:25;;;;;;;6.10;3.00;;;;;;;;;;4936963;29;20498;-73
2023/09/21 16:13:51;;;;;;;5.13;3.40;;;;;;;;;;4938546;29;20457;-74
2023/09/21 16:16:17;;;;;;;5.87;3.17;;;;;;;;;;4936547;29;20929;-72
2023/09/21 16:18:43;;;;;;;5.70;4.03;;;;;;;;;;4934642;29;20457;-74
2023/09/21 16:21:10;;;;;;;6.63;4.40;;;;;;;;;;4935187;29;20550;-72
2023/09/21 16:23:36;;;;;;;6.57;4.33;;;;;;;;;;4934686;29;20497;-72
2023/09/21 16:26:04;;;;;;;6.17;4.20;;;;;;;;;;4934916;29;20469;-72
2023/09/21 16:28:30;;;;;;;4.00;3.03;;;;;;;;;;4935252;29;20775;-74
2023/09/21 16:30:57;;;;;;;6.13;3.80;;;;;;;;;;4935378;29;20409;-74
2023/09/21 16:33:23;;;;;;;8.30;3.77;;;;;;;;;;4933512;29;20463;-72
2023/09/21 16:35:50;;;;;;;7.50;3.37;;;;;;;;;;4935141;29;20414;-73
2023/09/21 16:38:16;;;;;;;13.97;3.40;;;;;;;;;;4934799;29;20419;-73
2023/09/21 16:40:42;;;;;;;9.67;3.43;;;;;;;;;;4934887;29;20486;-73
2023/09/21 16:43:09;;;;;;;6.03;3.50;;;;;;;;;;4934674;29;20972;-73
2023/09/21 16:45:37;;;;;;;9.83;3.50;;;;;;;;;;4935244;29;20863;-73
2023/09/21 16:48:05;;;;;;;7.93;3.73;;;;;;;;;;4936069;29;20445;-73
2023/09/21 16:50:33;;;;;;;9.00;4.60;;;;;;;;;;4934996;29;20410;-73
2023/09/21 16:52:59;;;;;;;10.67;4.13;;;;;;;;;;4934635;29;20445;-73
2023/09/21 16:55:25;;;;;;;10.13;4.30;;;;;;;;;;4934577;29;20433;-74
2023/09/21 16:57:51;;;;;;;8.60;4.53;;;;;;;;;;4936086;29;20414;-73
2023/09/21 17:00:18;;;;;;;10.50;3.83;;;;;;;;;;4935730;29;20936;-73
2023/09/21 17:02:44;;;;;;;10.53;4.20;;;;;;;;;;4934391;29;20418;-73
2023/09/21 17:05:10;;;;;;;8.93;5.50;;;;;;;;;;4933842;29;20479;-73
2023/09/21 17:07:36;;;;;;;7.80;4.17;;;;;;;;;;4934288;29;20425;-72
2023/09/21 17:10:02;;;;;;;7.43;4.50;;;;;;;;;;4934678;29;20442;-73
2023/09/21 17:12:29;;;;;;;10.00;5.33;;;;;;;;;;4934718;29;20440;-73
2023/09/21 17:14:55;;;;;;;8.73;3.77;;;;;;;;;;4934205;29;20477;-72
2023/09/21 17:17:22;;;;;;;5.90;3.13;;;;;;;;;;4933459;29;20997;-72
2023/09/21 17:19:49;;;;;;;7.93;3.80;;;;;;;;;;4934403;29;20440;-72
2023/09/21 17:22:19;;;;;;;8.17;3.90;;;;;;;;;;4934201;29;20418;-73
2023/09/21 17:24:47;;;;;;;9.63;4.83;;;;;;;;;;4933927;29;20469;-73
2023/09/21 17:27:13;;;;;;;12.23;4.90;;;;;;;;;;4934429;29;20414;-73
2023/09/21 17:29:39;;;;;;;12.17;5.73;;;;;;;;;;4934495;29;20486;-73
2023/09/21 17:32:05;;;;;;;8.00;4.37;;;;;;;;;;4934183;29;20409;-72
2023/09/21 17:34:31;;;;;;;6.87;4.23;;;;;;;;;;4934264;29;20448;-73
2023/09/21 17:36:57;;;;;;;7.60;4.90;;;;;;;;;;4933414;29;20445;-73
2023/09/21 17:39:23;;;;;;;8.47;3.90;;;;;;;;;;4934411;29;20427;-72
2023/09/21 17:41:49;;;;;;;8.70;4.80;;;;;;;;;;4934563;29;20425;-72
2023/09/21 17:44:15;;;;;;;9.40;5.03;;;;;;;;;;4935023;29;20473;-72
2023/09/21 17:46:41;;;;;;;8.17;4.60;;;;;;;;;;4934219;29;20413;-72
2023/09/21 17:49:07;;;;;;;9.63;4.90;;;;;;;;;;4934694;29;20845;-72
2023/09/21 17:51:34;;;;;;;8.20;3.70;;;;;;;;;;4937779;29;20520;-72
2023/09/21 17:54:05;;;;;;;12.00;4.53;;;;;;;;;;4937669;29;20524;-72
2023/09/21 17:56:31;;;;;;;7.30;5.40;;;;;;;;;;4937851;29;20417;-72
2023/09/21 17:58:57;;;;;;;5.87;3.13;;;;;;;;;;4938436;29;20901;-72
2023/09/21 18:01:23;;;;;;;11.13;3.93;;;;;;;;;;4937662;29;20936;-73
2023/09/21 18:03:49;;;;;;;7.10;4.30;;;;;;;;;;4937370;29;20434;-72
2023/09/21 18:06:16;;;;;;;10.53;4.83;;;;;;;;;;4938388;29;20416;-72
2023/09/21 18:08:41;;;;;;;10.70;5.63;;;;;;;;;;4937673;29;20416;-72
2023/09/21 18:11:08;;;;;;;12.83;6.27;;;;;;;;;;4937642;29;20410;-72
2023/09/21 18:13:34;;;;;;;13.63;6.33;;;;;;;;;;4937402;29;20485;-68
2023/09/21 18:16:01;;;;;;;11.43;5.10;;;;;;;;;;4937350;29;20413;-68
2023/09/21 18:18:27;;;;;;;9.30;4.70;;;;;;;;;;4937211;29;20421;-68
2023/09/21 18:20:53;;;;;;;9.47;4.70;;;;;;;;;;4936729;29;20516;-69
2023/09/21 18:23:19;;;;;;;6.57;4.00;;;;;;;;;;4947370;29;20428;-71
2023/09/21 18:25:45;;;;;;;9.03;4.93;;;;;;;;;;4937940;28;20469;-71
2023/09/21 18:28:11;;;;;;;7.90;4.23;;;;;;;;;;4946636;29;20428;-70
2023/09/21 18:30:38;;;;;;;6.00;3.90;;;;;;;;;;4956007;28;20460;-71
2023/09/21 18:33:05;;;;;;;9.83;4.87;;;;;;;;;;4951032;28;20497;-70
2023/09/21 18:35:31;;;;;;;12.33;5.23;;;;;;;;;;4936437;29;20445;-73
2023/09/21 18:37:57;;;;;;;9.40;4.47;;;;;;;;;;4937158;29;20445;-71
2023/09/21 18:40:23;;;;;;;12.30;5.00;;;;;;;;;;4936800;29;20508;-72
2023/09/21 18:42:50;;;;;;;8.30;4.67;;;;;;;;;;4936645;29;20418;-71
2023/09/21 18:45:16;;;;;;;9.70;4.30;;;;;;;;;;4936313;29;20973;-70
2023/09/21 18:47:42;;;;;;;8.33;4.23;;;;;;;;;;4936539;29;20953;-72
2023/09/21 18:50:09;;;;;;;12.83;5.07;;;;;;;;;;4936215;29;20417;-69
2023/09/21 18:52:36;;;;;;;6.23;3.70;;;;;;;;;;4928075;29;20517;-68
2023/09/21 18:55:02;;;;;;;12.47;4.00;;;;;;;;;;4932704;29;20454;-68
2023/09/21 18:57:29;;;;;;;6.87;3.70;;;;;;;;;;4937409;29;20429;-69
2023/09/21 18:59:55;;;;;;;4.43;3.33;;;;;;;;;;4936101;29;20422;-68
2023/09/21 19:02:22;;;;;;;7.07;3.70;;;;;;;;;;4936110;29;20422;-68
2023/09/21 19:04:49;;;;;;;8.43;3.13;;;;;;;;;;4947563;29;20536;-68
2023/09/21 19:07:15;;;;;;;5.70;3.80;;;;;;;;;;4936577;29;20528;-68
2023/09/21 19:09:41;;;;;;;8.50;3.37;;;;;;;;;;4936057;29;20465;-69
2023/09/21 19:12:08;;;;;;;8.70;2.70;;;;;;;;;;4936257;29;20737;-68
2023/09/21 19:14:34;;;;;;;4.77;2.30;;;;;;;;;;4935607;29;20832;-68
2023/09/21 19:17:01;;;;;;;2.17;1.37;;;;;;;;;;4935920;29;20417;-69
2023/09/21 19:19:27;;;;;;;2.97;1.80;;;;;;;;;;4936008;29;20788;-67
2023/09/21 19:21:53;;;;;;;1.73;1.27;;;;;;;;;;4935974;29;20508;-67
2023/09/21 19:24:19;;;;;;;4.20;1.70;;;;;;;;;;4935751;29;20489;-67
2023/09/21 19:26:45;;;;;;;5.10;1.40;;;;;;;;;;4936003;29;20457;-67
2023/09/21 19:29:12;;;;;;;2.10;1.60;;;;;;;;;;4935680;29;20493;-67
2023/09/21 19:31:38;;;;;;;3.67;2.17;;;;;;;;;;4932984;29;20509;-68
2023/09/21 19:34:04;;;;;;;3.37;1.63;;;;;;;;;;4933673;29;20536;-69
2023/09/21 19:36:31;;;;;;;4.30;1.30;;;;;;;;;;4935084;29;20982;-68
2023/09/21 19:38:57;;;;;;;1.77;1.20;;;;;;;;;;4934460;29;20808;-68
2023/09/21 19:41:23;;;;;;;1.97;1.13;;;;;;;;;;4935542;29;20438;-68
2023/09/21 19:43:51;;;;;;;1.80;1.40;;;;;;;;;;4935148;29;20434;-68
2023/09/21 19:46:17;;;;;;;2.37;1.47;;;;;;;;;;4935428;29;20414;-67
2023/09/21 19:48:43;;;;;;;2.37;1.20;;;;;;;;;;4935793;29;20401;-68
2023/09/21 19:51:09;;;;;;;5.63;1.40;;;;;;;;;;4935686;29;20415;-68
2023/09/21 19:53:36;;;;;;;3.27;1.30;;;;;;;;;;4937456;29;20446;-68
2023/09/21 19:56:03;;;;;;;2.63;1.40;;;;;;;;;;4936510;28;20418;-68
2023/09/21 19:58:29;;;;;;;2.83;1.13;;;;;;;;;;4935246;29;20409;-67
2023/09/21 20:00:55;;;;;;;2.63;1.27;;;;;;;;;;4935543;29;20443;-67
2023/09/21 20:03:22;;;;;;;2.20;1.30;;;;;;;;;;4934872;29;20520;-68
2023/09/21 20:05:48;;;;;;;4.27;1.90;;;;;;;;;;4935054;29;20475;-68
2023/09/21 20:08:14;;;;;;;1.87;1.20;;;;;;;;;;4935229;29;20811;-68
2023/09/21 20:10:40;;;;;;;1.90;1.00;;;;;;;;;;4936327;29;20417;-67
2023/09/21 20:13:08;;;;;;;1.80;1.00;;;;;;;;;;4944713;28;20477;-68
2023/09/21 20:15:34;;;;;;;1.37;0.90;;;;;;;;;;4934926;29;20453;-68
2023/09/21 20:18:00;;;;;;;1.50;1.33;;;;;;;;;;4935361;29;20424;-70
2023/09/21 20:20:26;;;;;;;2.47;1.40;;;;;;;;;;4953385;29;20439;-67
2023/09/21 20:22:52;;;;;;;3.90;1.33;;;;;;;;;;4951462;28;20850;-67
2023/09/21 20:25:19;;;;;;;1.07;1.03;;;;;;;;;;4939967;29;20563;-67
2023/09/21 20:27:45;;;;;;;1.57;0.90;;;;;;;;;;4953888;28;20486;-67
2023/09/21 20:30:11;;;;;;;1.03;0.90;;;;;;;;;;4954039;28;20409;-67
2023/09/21 20:32:39;;;;;;;2.30;1.03;;;;;;;;;;4953085;28;20408;-68
2023/09/21 20:35:05;;;;;;;4.10;1.57;;;;;;;;;;4953312;29;20496;-67
2023/09/21 20:37:31;;;;;;;3.43;1.20;;;;;;;;;;4954006;28;20929;-68